sensor_id;sensor_type;location;lat;lon;timestamp;pressure;altitude;pressure_sealevel;temperature;humidity
33185;BME280;19550;42.872;25.494;2023-02-01T00:02:15;96324.50;;;1.32;100.00
33185;BME280;19550;42.872;25.494;2023-02-01T00:04:42;96319.88;;;1.37;100.00
33185;BME280;19550;42.872;25.494;2023-02-01T00:07:10;96322.59;;;1.37;100.00
33185;BME280;19550;42.872;25.494;2023-02-01T00:09:37;96320.16;;;1.41;100.00
33185;BME280;19550;42.872;25.494;2023-02-01T00:12:04;96320.16;;;1.41;100.00
33185;BME280;19550;42.872;25.494;2023-02-01T00:14:31;96325.63;;;1.41;100.00
33185;BME280;19550;42.872;25.494;2023-02-01T00:17:03;96321.78;;;1.37;100.00
33185;BME280;19550;42.872;25.494;2023-02-01T00:19:30;96324.78;;;1.40;100.00
33185;BME280;19550;42.872;25.494;2023-02-01T00:21:57;96327.25;;;1.37;100.00
33185;BME280;19550;42.872;25.494;2023-02-01T00:24:25;96324.75;;;1.30;100.00
33185;BME280;19550;42.872;25.494;2023-02-01T00:26:52;96328.63;;;1.39;100.00
33185;BME280;19550;42.872;25.494;2023-02-01T00:29:20;96320.94;;;1.31;100.00
33185;BME280;19550;42.872;25.494;2023-02-01T00:31:49;96315.22;;;1.33;100.00
33185;BME280;19550;42.872;25.494;2023-02-01T00:34:16;96320.97;;;1.36;100.00
33185;BME280;19550;42.872;25.494;2023-02-01T00:36:44;96313.56;;;1.32;100.00
33185;BME280;19550;42.872;25.494;2023-02-01T00:39:11;96318.22;;;1.36;100.00
33185;BME280;19550;42.872;25.494;2023-02-01T00:41:40;96315.72;;;1.30;100.00
33185;BME280;19550;42.872;25.494;2023-02-01T00:44:06;96325.84;;;1.34;100.00
33185;BME280;19550;42.872;25.494;2023-02-01T00:46:33;96311.34;;;1.29;100.00
33185;BME280;19550;42.872;25.494;2023-02-01T00:49:00;96315.72;;;1.30;100.00
33185;BME280;19550;42.872;25.494;2023-02-01T00:51:28;96311.91;;;1.31;100.00
33185;BME280;19550;42.872;25.494;2023-02-01T00:53:56;96316.22;;;1.22;100.00
33185;BME280;19550;42.872;25.494;2023-02-01T00:56:23;96327.72;;;1.24;100.00
33185;BME280;19550;42.872;25.494;2023-02-01T00:58:51;96318.69;;;1.23;100.00
33185;BME280;19550;42.872;25.494;2023-02-01T01:01:19;96322.53;;;1.27;100.00
33185;BME280;19550;42.872;25.494;2023-02-01T01:03:48;96315.16;;;1.28;100.00
33185;BME280;19550;42.872;25.494;2023-02-01T01:06:20;96316.81;;;1.29;100.00
33185;BME280;19550;42.872;25.494;2023-02-01T01:08:48;96307.78;;;1.23;100.00
33185;BME280;19550;42.872;25.494;2023-02-01T01:11:18;96311.34;;;1.24;100.00
33185;BME280;19550;42.872;25.494;2023-02-01T01:13:46;96306.69;;;1.24;100.00
33185;BME280;19550;42.872;25.494;2023-02-01T01:16:15;96307.25;;;1.26;100.00
33185;BME280;19550;42.872;25.494;2023-02-01T01:18:42;96306.97;;;1.28;100.00
33185;BME280;19550;42.872;25.494;2023-02-01T01:21:12;96309.16;;;1.26;100.00
33185;BME280;19550;42.872;25.494;2023-02-01T01:23:39;96312.97;;;1.25;100.00
33185;BME280;19550;42.872;25.494;2023-02-01T01:26:08;96313.56;;;1.32;100.00
33185;BME280;19550;42.872;25.494;2023-02-01T01:28:35;96311.91;;;1.31;100.00
33185;BME280;19550;42.872;25.494;2023-02-01T01:31:08;96318.97;;;1.27;100.00
33185;BME280;19550;42.872;25.494;2023-02-01T01:33:36;96314.09;;;1.29;100.00
33185;BME280;19550;42.872;25.494;2023-02-01T01:36:04;96315.22;;;1.33;100.00
33185;BME280;19550;42.872;25.494;2023-02-01T01:38:31;96313.03;;;1.35;100.00
33185;BME280;19550;42.872;25.494;2023-02-01T01:40:58;96318.47;;;1.30;100.00
33185;BME280;19550;42.872;25.494;2023-02-01T01:43:48;96322.03;;;1.35;100.00
33185;BME280;19550;42.872;25.494;2023-02-01T01:46:17;96323.44;;;1.43;100.00
33185;BME280;19550;42.872;25.494;2023-02-01T01:48:48;96325.09;;;1.39;100.00
33185;BME280;19550;42.872;25.494;2023-02-01T01:51:20;96320.38;;;1.34;100.00
33185;BME280;19550;42.872;25.494;2023-02-01T01:53:55;96325.63;;;1.41;100.00
33185;BME280;19550;42.872;25.494;2023-02-01T01:56:25;96329.75;;;1.43;100.00
33185;BME280;19550;42.872;25.494;2023-02-01T01:58:53;96328.69;;;1.49;100.00
33185;BME280;19550;42.872;25.494;2023-02-01T02:01:21;96321.78;;;1.37;100.00
33185;BME280;19550;42.872;25.494;2023-02-01T02:03:49;96325.91;;;1.39;100.00
33185;BME280;19550;42.872;25.494;2023-02-01T02:06:20;96324.78;;;1.35;100.00
33185;BME280;19550;42.872;25.494;2023-02-01T02:08:48;96327.22;;;1.32;100.00
33185;BME280;19550;42.872;25.494;2023-02-01T02:11:16;96321.44;;;1.28;100.00
33185;BME280;19550;42.872;25.494;2023-02-01T02:13:48;96323.41;;;1.33;100.00
33185;BME280;19550;42.872;25.494;2023-02-01T02:16:26;96326.66;;;1.30;100.00
33185;BME280;19550;42.872;25.494;2023-02-01T02:19:10;96325.84;;;1.29;100.00
33185;BME280;19550;42.872;25.494;2023-02-01T02:21:56;96329.38;;;1.30;100.00
33185;BME280;19550;42.872;25.494;2023-02-01T02:24:49;96331.00;;;1.26;100.00
33185;BME280;19550;42.872;25.494;2023-02-01T02:27:31;96327.00;;;1.38;100.00
33185;BME280;19550;42.872;25.494;2023-02-01T02:34:00;96325.56;;;1.26;100.00
33185;BME280;19550;42.872;25.494;2023-02-01T02:36:38;96342.16;;;1.19;100.00
33185;BME280;19550;42.872;25.494;2023-02-01T02:39:09;96331.50;;;1.17;100.00
33185;BME280;19550;42.872;25.494;2023-02-01T02:41:47;96346.25;;;1.22;100.00
33185;BME280;19550;42.872;25.494;2023-02-01T02:44:36;96353.59;;;1.16;100.00
33185;BME280;19550;42.872;25.494;2023-02-01T02:47:30;96349.56;;;1.24;100.00
33185;BME280;19550;42.872;25.494;2023-02-01T02:50:09;96346.78;;;1.18;100.00
33185;BME280;19550;42.872;25.494;2023-02-01T02:52:59;96351.94;;;1.15;100.00
33185;BME280;19550;42.872;25.494;2023-02-01T02:55:45;96355.75;;;1.14;100.00
33185;BME280;19550;42.872;25.494;2023-02-01T02:58:13;96355.81;;;1.19;100.00
33185;BME280;19550;42.872;25.494;2023-02-01T03:00:59;96354.66;;;1.15;100.00
33185;BME280;19550;42.872;25.494;2023-02-01T03:03:45;96362.59;;;1.16;100.00
33185;BME280;19550;42.872;25.494;2023-02-01T03:06:36;96351.97;;;1.20;100.00
33185;BME280;19550;42.872;25.494;2023-02-01T03:09:08;96362.84;;;1.15;100.00
33185;BME280;19550;42.872;25.494;2023-02-01T03:11:38;96354.66;;;1.15;100.00
33185;BME280;19550;42.872;25.494;2023-02-01T03:14:25;96352.16;;;1.08;100.00
33185;BME280;19550;42.872;25.494;2023-02-01T03:16:58;96343.97;;;1.08;100.00
33185;BME280;19550;42.872;25.494;2023-02-01T03:19:30;96349.69;;;1.07;100.00
33185;BME280;19550;42.872;25.494;2023-02-01T03:22:03;96357.38;;;1.10;100.00
33185;BME280;19550;42.872;25.494;2023-02-01T03:24:33;96353.56;;;1.11;100.00
33185;BME280;19550;42.872;25.494;2023-02-01T03:27:05;96348.09;;;1.11;100.00
33185;BME280;19550;42.872;25.494;2023-02-01T03:29:38;96352.47;;;1.12;100.00
33185;BME280;19550;42.872;25.494;2023-02-01T03:32:07;96357.66;;;1.13;100.00
33185;BME280;19550;42.872;25.494;2023-02-01T03:34:35;96337.97;;;1.06;100.00
33185;BME280;19550;42.872;25.494;2023-02-01T03:37:06;96341.81;;;1.10;100.00
33185;BME280;19550;42.872;25.494;2023-02-01T03:39:39;96342.91;;;1.09;100.00
33185;BME280;19550;42.872;25.494;2023-02-01T03:42:13;96346.16;;;1.06;100.00
33185;BME280;19550;42.872;25.494;2023-02-01T03:44:47;96339.13;;;1.15;100.00
33185;BME280;19550;42.872;25.494;2023-02-01T03:47:20;96356.63;;;1.19;100.00
33185;BME280;19550;42.872;25.494;2023-02-01T03:49:50;96350.63;;;1.23;100.00
33185;BME280;19550;42.872;25.494;2023-02-01T03:52:22;96348.16;;;1.21;100.00
33185;BME280;19550;42.872;25.494;2023-02-01T03:54:52;96351.66;;;1.11;100.00
33185;BME280;19550;42.872;25.494;2023-02-01T03:57:23;96347.78;;;1.07;100.00
33185;BME280;19550;42.872;25.494;2023-02-01T03:59:52;96345.72;;;1.19;100.00
33185;BME280;19550;42.872;25.494;2023-02-01T04:02:18;96346.19;;;1.11;100.00
33185;BME280;19550;42.872;25.494;2023-02-01T04:04:45;96351.34;;;1.08;100.00
33185;BME280;19550;42.872;25.494;2023-02-01T04:07:12;96356.03;;;1.12;100.00
33185;BME280;19550;42.872;25.494;2023-02-01T04:09:41;96348.91;;;1.06;100.00
33185;BME280;19550;42.872;25.494;2023-02-01T04:12:07;96354.06;;;1.08;100.00
33185;BME280;19550;42.872;25.494;2023-02-01T04:14:34;96350.50;;;1.07;100.00
33185;BME280;19550;42.872;25.494;2023-02-01T04:17:01;96357.09;;;1.06;100.00
33185;BME280;19550;42.872;25.494;2023-02-01T04:19:28;96346.34;;;1.00;100.00
33185;BME280;19550;42.872;25.494;2023-02-01T04:21:55;96363.25;;;0.92;100.00
33185;BME280;19550;42.872;25.494;2023-02-01T04:24:22;96362.16;;;0.93;100.00
33185;BME280;19550;42.872;25.494;2023-02-01T04:26:50;96361.34;;;0.92;100.00
33185;BME280;19550;42.872;25.494;2023-02-01T04:29:17;96358.25;;;0.84;100.00
33185;BME280;19550;42.872;25.494;2023-02-01T04:31:44;96359.03;;;0.79;100.00
33185;BME280;19550;42.872;25.494;2023-02-01T04:34:11;96354.97;;;0.82;100.00
33185;BME280;19550;42.872;25.494;2023-02-01T04:36:38;96349.19;;;0.73;100.00
33185;BME280;19550;42.872;25.494;2023-02-01T04:39:05;96361.81;;;0.84;100.00
33185;BME280;19550;42.872;25.494;2023-02-01T04:41:32;96358.81;;;0.86;100.00
33185;BME280;19550;42.872;25.494;2023-02-01T04:44:00;96368.94;;;0.90;100.00
33185;BME280;19550;42.872;25.494;2023-02-01T04:46:27;96353.88;;;0.83;100.00
33185;BME280;19550;42.872;25.494;2023-02-01T04:48:54;96364.28;;;0.86;100.00
33185;BME280;19550;42.872;25.494;2023-02-01T04:51:21;96366.13;;;0.80;100.00
33185;BME280;19550;42.872;25.494;2023-02-01T04:53:48;96376.88;;;0.92;100.00
33185;BME280;19550;42.872;25.494;2023-02-01T04:56:15;96340.72;;;0.74;100.00
33185;BME280;19550;42.872;25.494;2023-02-01T04:58:42;96374.66;;;0.89;100.00
33185;BME280;19550;42.872;25.494;2023-02-01T05:01:10;96364.00;;;0.87;100.00
33185;BME280;19550;42.872;25.494;2023-02-01T05:03:37;96380.72;;;0.96;100.00
33185;BME280;19550;42.872;25.494;2023-02-01T05:06:04;96371.94;;;0.89;100.00
33185;BME280;19550;42.872;25.494;2023-02-01T05:08:32;96374.91;;;0.87;100.00
33185;BME280;19550;42.872;25.494;2023-02-01T05:10:59;96367.78;;;0.81;100.00
33185;BME280;19550;42.872;25.494;2023-02-01T05:13:28;96359.25;;;0.72;100.00
33185;BME280;19550;42.872;25.494;2023-02-01T05:16:13;96370.69;;;0.69;100.00
33185;BME280;19550;42.872;25.494;2023-02-01T05:18:40;96368.53;;;0.71;100.00
33185;BME280;19550;42.872;25.494;2023-02-01T05:21:07;96376.06;;;0.59;100.00
33185;BME280;19550;42.872;25.494;2023-02-01T05:23:34;96365.66;;;0.56;100.00
33185;BME280;19550;42.872;25.494;2023-02-01T05:26:23;96360.91;;;0.47;100.00
33185;BME280;19550;42.872;25.494;2023-02-01T05:28:50;96350.31;;;0.50;100.00
33185;BME280;19550;42.872;25.494;2023-02-01T05:31:19;96343.59;;;0.31;100.00
33185;BME280;19550;42.872;25.494;2023-02-01T05:33:46;96359.75;;;0.37;100.00
33185;BME280;19550;42.872;25.494;2023-02-01T05:36:13;96360.38;;;0.45;100.00
33185;BME280;19550;42.872;25.494;2023-02-01T05:38:40;96361.59;;;0.32;100.00
33185;BME280;19550;42.872;25.494;2023-02-01T05:41:07;96371.31;;;0.50;100.00
33185;BME280;19550;42.872;25.494;2023-02-01T05:43:34;96363.16;;;0.55;100.00
33185;BME280;19550;42.872;25.494;2023-02-01T05:46:01;96373.94;;;0.39;100.00
33185;BME280;19550;42.872;25.494;2023-02-01T05:48:29;96373.53;;;0.26;100.00
33185;BME280;19550;42.872;25.494;2023-02-01T05:50:56;96375.22;;;0.32;100.00
33185;BME280;19550;42.872;25.494;2023-02-01T05:53:23;96386.25;;;0.20;100.00
33185;BME280;19550;42.872;25.494;2023-02-01T05:55:50;96389.50;;;0.17;100.00
33185;BME280;19550;42.872;25.494;2023-02-01T05:58:17;96387.59;;;0.18;100.00
33185;BME280;19550;42.872;25.494;2023-02-01T06:00:44;96392.28;;;0.22;100.00
33185;BME280;19550;42.872;25.494;2023-02-01T06:03:11;96390.72;;;0.26;100.00
33185;BME280;19550;42.872;25.494;2023-02-01T06:05:39;96387.00;;;0.37;100.00
33185;BME280;19550;42.872;25.494;2023-02-01T06:08:06;96384.91;;;0.45;100.00
33185;BME280;19550;42.872;25.494;2023-02-01T06:10:34;96383.31;;;0.27;100.00
33185;BME280;19550;42.872;25.494;2023-02-01T06:13:01;96389.69;;;0.32;100.00
33185;BME280;19550;42.872;25.494;2023-02-01T06:15:28;96396.47;;;0.30;100.00
33185;BME280;19550;42.872;25.494;2023-02-01T06:17:55;96387.16;;;0.26;100.00
33185;BME280;19550;42.872;25.494;2023-02-01T06:20:22;96398.31;;;0.24;100.00
33185;BME280;19550;42.872;25.494;2023-02-01T06:22:50;96404.69;;;0.35;100.00
33185;BME280;19550;42.872;25.494;2023-02-01T06:25:18;96404.28;;;0.48;100.00
33185;BME280;19550;42.872;25.494;2023-02-01T06:27:47;96401.91;;;0.57;100.00
33185;BME280;19550;42.872;25.494;2023-02-01T06:30:15;96417.88;;;0.70;100.00
33185;BME280;19550;42.872;25.494;2023-02-01T06:32:42;96410.19;;;0.67;100.00
33185;BME280;19550;42.872;25.494;2023-02-01T06:35:09;96408.69;;;0.81;100.00
33185;BME280;19550;42.872;25.494;2023-02-01T06:37:41;96415.13;;;0.97;100.00
33185;BME280;19550;42.872;25.494;2023-02-01T06:40:11;96417.91;;;1.07;100.00
33185;BME280;19550;42.872;25.494;2023-02-01T06:42:38;96413.59;;;1.11;100.00
33185;BME280;19550;42.872;25.494;2023-02-01T06:45:06;96412.81;;;1.15;100.00
33185;BME280;19550;42.872;25.494;2023-02-01T06:47:33;96412.81;;;1.15;100.00
33185;BME280;19550;42.872;25.494;2023-02-01T06:50:00;96407.09;;;1.17;100.00
33185;BME280;19550;42.872;25.494;2023-02-01T06:52:27;96414.59;;;1.32;100.00
33185;BME280;19550;42.872;25.494;2023-02-01T06:54:54;96414.25;;;1.23;100.00
33185;BME280;19550;42.872;25.494;2023-02-01T06:57:22;96412.84;;;1.20;100.00
33185;BME280;19550;42.872;25.494;2023-02-01T06:59:49;96422.44;;;1.23;100.00
33185;BME280;19550;42.872;25.494;2023-02-01T07:02:16;96417.03;;;1.33;100.00
33185;BME280;19550;42.872;25.494;2023-02-01T07:04:43;96420.09;;;1.42;100.00
33185;BME280;19550;42.872;25.494;2023-02-01T07:07:09;96421.50;;;1.44;100.00
33185;BME280;19550;42.872;25.494;2023-02-01T07:09:37;96417.09;;;1.38;100.00
33185;BME280;19550;42.872;25.494;2023-02-01T07:12:05;96422.31;;;1.45;100.00
33185;BME280;19550;42.872;25.494;2023-02-01T07:14:33;96420.44;;;1.50;100.00
33185;BME280;19550;42.872;25.494;2023-02-01T07:17:00;96428.41;;;1.57;100.00
33185;BME280;19550;42.872;25.494;2023-02-01T07:19:27;96425.91;;;1.50;100.00
33185;BME280;19550;42.872;25.494;2023-02-01T07:21:54;96432.25;;;1.61;100.00
33185;BME280;19550;42.872;25.494;2023-02-01T07:24:21;96431.19;;;1.67;100.00
33185;BME280;19550;42.872;25.494;2023-02-01T07:26:48;96435.88;;;1.72;100.00
33185;BME280;19550;42.872;25.494;2023-02-01T07:29:16;96446.03;;;1.81;100.00
33185;BME280;19550;42.872;25.494;2023-02-01T07:31:45;96442.56;;;1.91;100.00
33185;BME280;19550;42.872;25.494;2023-02-01T07:34:11;96447.78;;;1.97;100.00
33185;BME280;19550;42.872;25.494;2023-02-01T07:36:38;96449.22;;;2.10;100.00
33185;BME280;19550;42.872;25.494;2023-02-01T07:39:05;96447.31;;;2.16;100.00
33185;BME280;19550;42.872;25.494;2023-02-01T07:41:32;96448.44;;;2.20;100.00
33185;BME280;19550;42.872;25.494;2023-02-01T07:43:59;96448.44;;;2.20;100.00
33185;BME280;19550;42.872;25.494;2023-02-01T07:46:26;96435.88;;;2.24;100.00
33185;BME280;19550;42.872;25.494;2023-02-01T07:48:55;96457.16;;;2.12;100.00
33185;BME280;19550;42.872;25.494;2023-02-01T07:51:22;96451.44;;;2.18;100.00
33185;BME280;19550;42.872;25.494;2023-02-01T07:53:48;96457.50;;;2.25;98.97
33185;BME280;19550;42.872;25.494;2023-02-01T07:56:17;96450.91;;;2.21;98.32
33185;BME280;19550;42.872;25.494;2023-02-01T07:58:47;96444.06;;;2.19;99.87
33185;BME280;19550;42.872;25.494;2023-02-01T08:01:15;96445.75;;;2.35;99.71
33185;BME280;19550;42.872;25.494;2023-02-01T08:03:48;96446.34;;;2.37;100.00
33185;BME280;19550;42.872;25.494;2023-02-01T08:06:17;96440.56;;;2.33;99.76
33185;BME280;19550;42.872;25.494;2023-02-01T08:08:45;96440.34;;;2.45;100.00
33185;BME280;19550;42.872;25.494;2023-02-01T08:11:13;96448.00;;;2.53;100.00
33185;BME280;19550;42.872;25.494;2023-02-01T08:13:41;96425.34;;;2.58;99.14
33185;BME280;19550;42.872;25.494;2023-02-01T08:16:09;96448.31;;;2.52;98.69
33185;BME280;19550;42.872;25.494;2023-02-01T08:18:37;96452.97;;;2.56;100.00
33185;BME280;19550;42.872;25.494;2023-02-01T08:21:05;96458.50;;;2.71;99.07
33185;BME280;19550;42.872;25.494;2023-02-01T08:23:35;96452.19;;;2.71;100.00
33185;BME280;19550;42.872;25.494;2023-02-01T08:26:07;96454.94;;;2.71;99.39
33185;BME280;19550;42.872;25.494;2023-02-01T08:28:34;96451.94;;;2.72;100.00
33185;BME280;19550;42.872;25.494;2023-02-01T08:31:04;96459.59;;;2.80;98.56
33185;BME280;19550;42.872;25.494;2023-02-01T08:33:32;96451.94;;;2.83;99.36
33185;BME280;19550;42.872;25.494;2023-02-01T08:36:01;96455.25;;;2.85;96.94
33185;BME280;19550;42.872;25.494;2023-02-01T08:38:28;96445.69;;;2.97;97.17
33185;BME280;19550;42.872;25.494;2023-02-01T08:40:56;96451.41;;;2.96;97.94
33185;BME280;19550;42.872;25.494;2023-02-01T08:43:24;96440.16;;;2.87;96.71
33185;BME280;19550;42.872;25.494;2023-02-01T08:45:54;96450.06;;;3.08;97.79
33185;BME280;19550;42.872;25.494;2023-02-01T08:48:21;96455.81;;;3.27;97.31
33185;BME280;19550;42.872;25.494;2023-02-01T08:50:48;96452.56;;;3.30;95.66
33185;BME280;19550;42.872;25.494;2023-02-01T08:53:15;96453.94;;;3.38;95.96
33185;BME280;19550;42.872;25.494;2023-02-01T08:55:42;96448.16;;;3.29;95.64
33185;BME280;19550;42.872;25.494;2023-02-01T08:58:10;96451.72;;;3.35;98.88
33185;BME280;19550;42.872;25.494;2023-02-01T09:00:39;96455.28;;;3.35;96.94
33185;BME280;19550;42.872;25.494;2023-02-01T09:03:09;96458.59;;;3.32;95.66
33185;BME280;19550;42.872;25.494;2023-02-01T09:05:37;96463.50;;;3.35;97.38
33185;BME280;19550;42.872;25.494;2023-02-01T09:08:04;96453.38;;;3.41;97.75
33185;BME280;19550;42.872;25.494;2023-02-01T09:10:31;96463.50;;;3.35;96.00
33185;BME280;19550;42.872;25.494;2023-02-01T09:12:58;96455.56;;;3.49;96.33
33185;BME280;19550;42.872;25.494;2023-02-01T09:15:26;96451.44;;;3.46;95.65
33185;BME280;19550;42.872;25.494;2023-02-01T09:17:53;96456.09;;;3.46;96.31
33185;BME280;19550;42.872;25.494;2023-02-01T09:20:20;96445.94;;;3.67;96.63
33185;BME280;19550;42.872;25.494;2023-02-01T09:22:50;96448.13;;;3.80;97.08
33185;BME280;19550;42.872;25.494;2023-02-01T09:25:17;96444.00;;;3.97;93.46
33185;BME280;19550;42.872;25.494;2023-02-01T09:27:43;96444.25;;;4.11;96.01
33185;BME280;19550;42.872;25.494;2023-02-01T09:30:11;96434.16;;;3.91;93.03
33185;BME280;19550;42.872;25.494;2023-02-01T09:32:40;96436.88;;;3.86;92.61
33185;BME280;19550;42.872;25.494;2023-02-01T09:35:07;96434.41;;;4.05;94.64
33185;BME280;19550;42.872;25.494;2023-02-01T09:37:34;96423.97;;;3.97;92.37
33185;BME280;19550;42.872;25.494;2023-02-01T09:40:01;96433.31;;;3.96;93.70
33185;BME280;19550;42.872;25.494;2023-02-01T09:42:54;96408.06;;;3.94;91.75
33185;BME280;19550;42.872;25.494;2023-02-01T09:45:29;96409.13;;;4.08;92.86
33185;BME280;19550;42.872;25.494;2023-02-01T09:48:07;96419.31;;;4.03;91.54
33185;BME280;19550;42.872;25.494;2023-02-01T09:50:40;96406.78;;;4.46;91.79
33185;BME280;19550;42.872;25.494;2023-02-01T09:53:13;96405.53;;;4.77;89.18
33185;BME280;19550;42.872;25.494;2023-02-01T09:55:46;96409.16;;;5.06;88.79
33185;BME280;19550;42.872;25.494;2023-02-01T09:58:17;96383.78;;;5.25;89.53
33185;BME280;19550;42.872;25.494;2023-02-01T10:00:50;96408.25;;;5.55;87.25
33185;BME280;19550;42.872;25.494;2023-02-01T10:03:19;96392.88;;;5.20;85.67
33185;BME280;19550;42.872;25.494;2023-02-01T10:05:59;96395.22;;;5.37;86.77
33185;BME280;19550;42.872;25.494;2023-02-01T10:08:35;96390.91;;;5.26;87.17
33185;BME280;19550;42.872;25.494;2023-02-01T10:11:20;96390.59;;;5.27;85.71
33185;BME280;19550;42.872;25.494;2023-02-01T10:13:54;96381.00;;;5.30;86.71
33185;BME280;19550;42.872;25.494;2023-02-01T10:16:35;96368.16;;;5.78;87.35
33185;BME280;19550;42.872;25.494;2023-02-01T10:19:22;96378.34;;;5.77;83.49
33185;BME280;19550;42.872;25.494;2023-02-01T10:21:55;96358.69;;;5.60;82.82
33185;BME280;19550;42.872;25.494;2023-02-01T10:24:34;96368.41;;;5.52;84.56
33185;BME280;19550;42.872;25.494;2023-02-01T10:27:11;96349.38;;;5.90;83.37
33185;BME280;19550;42.872;25.494;2023-02-01T10:29:40;96353.22;;;6.13;82.70
33185;BME280;19550;42.872;25.494;2023-02-01T10:32:14;96355.41;;;6.34;83.11
33185;BME280;19550;42.872;25.494;2023-02-01T10:34:44;96351.13;;;6.66;79.76
33185;BME280;19550;42.872;25.494;2023-02-01T10:37:26;96332.53;;;6.76;80.48
33185;BME280;19550;42.872;25.494;2023-02-01T10:39:55;96329.56;;;6.54;83.75
33185;BME280;19550;42.872;25.494;2023-02-01T10:42:26;96336.69;;;6.13;80.70
33185;BME280;19550;42.872;25.494;2023-02-01T10:44:54;96323.38;;;6.44;81.57
33185;BME280;19550;42.872;25.494;2023-02-01T10:47:22;96318.06;;;6.28;80.96
33185;BME280;19550;42.872;25.494;2023-02-01T10:49:55;96317.50;;;6.50;79.86
33185;BME280;19550;42.872;25.494;2023-02-01T10:52:33;96323.69;;;6.61;78.96
33185;BME280;19550;42.872;25.494;2023-02-01T10:55:35;96325.69;;;6.74;79.38
33185;BME280;19550;42.872;25.494;2023-02-01T10:58:05;96327.16;;;6.05;79.40
33185;BME280;19550;42.872;25.494;2023-02-01T11:00:44;96309.84;;;6.05;80.99
33185;BME280;19550;42.872;25.494;2023-02-01T11:03:41;96295.88;;;6.20;82.79
33185;BME280;19550;42.872;25.494;2023-02-01T11:06:15;96306.25;;;6.65;82.15
33185;BME280;19550;42.872;25.494;2023-02-01T11:08:49;96286.44;;;6.82;78.41
33185;BME280;19550;42.872;25.494;2023-02-01T11:11:17;96299.25;;;6.54;79.77
33185;BME280;19550;42.872;25.494;2023-02-01T11:13:44;96288.63;;;6.48;79.16
33185;BME280;19550;42.872;25.494;2023-02-01T11:16:18;96291.91;;;6.68;82.45
33185;BME280;19550;42.872;25.494;2023-02-01T11:18:45;96286.41;;;7.01;82.44
33185;BME280;19550;42.872;25.494;2023-02-01T11:21:20;96284.41;;;7.06;78.95
33185;BME280;19550;42.872;25.494;2023-02-01T11:23:48;96291.09;;;7.33;76.59
33185;BME280;19550;42.872;25.494;2023-02-01T11:26:20;96279.19;;;7.37;77.24
33185;BME280;19550;42.872;25.494;2023-02-01T11:28:53;96275.97;;;7.63;75.64
33185;BME280;19550;42.872;25.494;2023-02-01T11:31:22;96287.00;;;7.16;76.38
33185;BME280;19550;42.872;25.494;2023-02-01T11:33:54;96274.00;;;7.49;77.95
33185;BME280;19550;42.872;25.494;2023-02-01T11:36:26;96277.38;;;7.74;74.60
33185;BME280;19550;42.872;25.494;2023-02-01T11:39:08;96264.47;;;7.42;75.34
33185;BME280;19550;42.872;25.494;2023-02-01T11:41:41;96262.22;;;7.30;75.72
33185;BME280;19550;42.872;25.494;2023-02-01T11:44:33;96272.84;;;7.37;78.11
33185;BME280;19550;42.872;25.494;2023-02-01T11:47:24;96264.78;;;7.40;75.07
33185;BME280;19550;42.872;25.494;2023-02-01T11:49:52;96273.28;;;7.85;74.73
33185;BME280;19550;42.872;25.494;2023-02-01T11:52:39;96260.44;;;7.80;73.25
33185;BME280;19550;42.872;25.494;2023-02-01T11:55:22;96274.63;;;7.14;73.51
33185;BME280;19550;42.872;25.494;2023-02-01T11:58:06;96268.63;;;6.93;73.99
33185;BME280;19550;42.872;25.494;2023-02-01T12:00:55;96255.66;;;7.26;74.78
33185;BME280;19550;42.872;25.494;2023-02-01T12:05:58;96248.47;;;7.44;73.88
33185;BME280;19550;42.872;25.494;2023-02-01T12:11:43;96246.59;;;7.39;74.69
33185;BME280;19550;42.872;25.494;2023-02-01T12:14:23;96247.72;;;7.52;73.16
33185;BME280;19550;42.872;25.494;2023-02-01T12:17:01;96233.84;;;7.43;73.90
33185;BME280;19550;42.872;25.494;2023-02-01T12:19:57;96239.06;;;7.31;73.61
33185;BME280;19550;42.872;25.494;2023-02-01T12:22:35;96231.06;;;7.16;75.31
33185;BME280;19550;42.872;25.494;2023-02-01T12:25:19;96237.41;;;6.84;76.11
33185;BME280;19550;42.872;25.494;2023-02-01T12:28:14;96242.38;;;6.82;75.87
33185;BME280;19550;42.872;25.494;2023-02-01T12:31:07;96235.19;;;6.67;76.53
33185;BME280;19550;42.872;25.494;2023-02-01T12:33:48;96237.19;;;6.62;76.77
33185;BME280;19550;42.872;25.494;2023-02-01T12:36:26;96232.97;;;6.51;76.88
33185;BME280;19550;42.872;25.494;2023-02-01T12:39:04;96241.16;;;6.56;78.26
33185;BME280;19550;42.872;25.494;2023-02-01T12:41:46;96230.19;;;6.69;79.18
33185;BME280;19550;42.872;25.494;2023-02-01T12:44:25;96249.03;;;6.62;78.99
33185;BME280;19550;42.872;25.494;2023-02-01T12:46:56;96246.50;;;6.47;77.06
33185;BME280;19550;42.872;25.494;2023-02-01T12:49:32;96244.94;;;6.41;78.11
33185;BME280;19550;42.872;25.494;2023-02-01T12:52:04;96234.16;;;6.45;79.15
33185;BME280;19550;42.872;25.494;2023-02-01T12:54:38;96244.75;;;6.37;78.65
33185;BME280;19550;42.872;25.494;2023-02-01T12:57:16;96241.59;;;6.25;78.48
33185;BME280;19550;42.872;25.494;2023-02-01T12:59:48;96236.31;;;6.29;80.80
33185;BME280;19550;42.872;25.494;2023-02-01T13:02:23;96241.75;;;6.34;79.84
33185;BME280;19550;42.872;25.494;2023-02-01T13:04:58;96247.25;;;6.34;83.07
33185;BME280;19550;42.872;25.494;2023-02-01T13:07:31;96244.56;;;6.29;81.51
33185;BME280;19550;42.872;25.494;2023-02-01T13:10:04;96248.06;;;6.16;79.51
33185;BME280;19550;42.872;25.494;2023-02-01T13:12:40;96250.00;;;6.15;82.48
33185;BME280;19550;42.872;25.494;2023-02-01T13:15:13;96248.00;;;6.21;81.49
33185;BME280;19550;42.872;25.494;2023-02-01T13:17:44;96239.34;;;6.09;84.80
33185;BME280;19550;42.872;25.494;2023-02-01T13:20:17;96238.69;;;6.17;82.26
33185;BME280;19550;42.872;25.494;2023-02-01T13:22:48;96243.75;;;6.10;80.66
33185;BME280;19550;42.872;25.494;2023-02-01T13:25:27;96237.50;;;6.04;81.17
33185;BME280;19550;42.872;25.494;2023-02-01T13:28:01;96239.25;;;5.95;83.25